sensor_id;sensor_type;location;lat;lon;timestamp;pressure;altitude;pressure_sealevel;temperature;humidity
70011;BME280;59543;37.950;-122.338;2023-03-14T00:02:09;101481.59;;;17.66;69.38
70011;BME280;59543;37.950;-122.338;2023-03-14T00:04:35;101471.09;;;17.63;69.40
70011;BME280;59543;37.950;-122.338;2023-03-14T00:07:02;101466.72;;;17.53;70.47
70011;BME280;59543;37.950;-122.338;2023-03-14T00:09:28;101463.69;;;17.48;69.87
70011;BME280;59543;37.950;-122.338;2023-03-14T00:11:55;101469.66;;;17.44;70.21
70011;BME280;59543;37.950;-122.338;2023-03-14T00:14:21;101462.88;;;17.40;70.80
70011;BME280;59543;37.950;-122.338;2023-03-14T00:16:47;101451.06;;;17.08;72.05
70011;BME280;59543;37.950;-122.338;2023-03-14T00:19:13;101454.28;;;17.20;71.13
70011;BME280;59543;37.950;-122.338;2023-03-14T00:21:38;101454.94;;;17.22;71.85
70011;BME280;59543;37.950;-122.338;2023-03-14T00:24:04;101451.88;;;17.33;71.31
70011;BME280;59543;37.950;-122.338;2023-03-14T00:26:31;101444.69;;;17.40;70.21
70011;BME280;59543;37.950;-122.338;2023-03-14T00:28:57;101436.06;;;17.28;70.96
70011;BME280;59543;37.950;-122.338;2023-03-14T00:31:23;101434.22;;;17.21;71.32
70011;BME280;59543;37.950;-122.338;2023-03-14T00:33:51;101424.34;;;17.28;71.15
70011;BME280;59543;37.950;-122.338;2023-03-14T00:36:17;101425.53;;;17.25;72.09
70011;BME280;59543;37.950;-122.338;2023-03-14T00:38:46;101408.53;;;17.23;70.96
70011;BME280;59543;37.950;-122.338;2023-03-14T00:41:14;101413.56;;;17.43;70.68
70011;BME280;59543;37.950;-122.338;2023-03-14T00:43:40;101412.47;;;17.21;71.17
70011;BME280;59543;37.950;-122.338;2023-03-14T00:46:06;101408.38;;;17.25;71.35
70011;BME280;59543;37.950;-122.338;2023-03-14T00:48:32;101407.91;;;17.13;71.51
70011;BME280;59543;37.950;-122.338;2023-03-14T00:50:58;101404.03;;;16.99;71.31
70011;BME280;59543;37.950;-122.338;2023-03-14T00:53:24;101408.44;;;17.08;72.29
70011;BME280;59543;37.950;-122.338;2023-03-14T00:55:50;101404.34;;;17.12;72.00
70011;BME280;59543;37.950;-122.338;2023-03-14T00:58:16;101417.63;;;17.07;70.92
70011;BME280;59543;37.950;-122.338;2023-03-14T01:00:43;101416.44;;;17.02;71.66
70011;BME280;59543;37.950;-122.338;2023-03-14T01:03:09;101416.31;;;16.95;71.56
70011;BME280;59543;37.950;-122.338;2023-03-14T01:05:36;101434.50;;;16.86;72.50
70011;BME280;59543;37.950;-122.338;2023-03-14T01:08:02;101438.56;;;16.74;72.47
70011;BME280;59543;37.950;-122.338;2023-03-14T01:10:28;101442.13;;;16.66;72.35
70011;BME280;59543;37.950;-122.338;2023-03-14T01:12:54;101433.16;;;16.58;72.77
70011;BME280;59543;37.950;-122.338;2023-03-14T01:15:20;101440.09;;;16.60;72.72
70011;BME280;59543;37.950;-122.338;2023-03-14T01:17:46;101443.00;;;16.34;73.90
70011;BME280;59543;37.950;-122.338;2023-03-14T01:20:12;101454.72;;;16.27;73.69
70011;BME280;59543;37.950;-122.338;2023-03-14T01:22:39;101459.78;;;16.21;74.42
70011;BME280;59543;37.950;-122.338;2023-03-14T01:25:05;101467.91;;;16.05;75.03
70011;BME280;59543;37.950;-122.338;2023-03-14T01:27:32;101471.16;;;16.09;74.85
70011;BME280;59543;37.950;-122.338;2023-03-14T01:29:58;101458.44;;;16.01;75.01
70011;BME280;59543;37.950;-122.338;2023-03-14T01:32:24;101450.00;;;15.62;76.46
70011;BME280;59543;37.950;-122.338;2023-03-14T01:34:50;101447.75;;;15.57;76.86
70011;BME280;59543;37.950;-122.338;2023-03-14T01:37:16;101448.41;;;15.51;77.44
70011;BME280;59543;37.950;-122.338;2023-03-14T01:39:42;101445.78;;;15.67;77.90
70011;BME280;59543;37.950;-122.338;2023-03-14T01:42:08;101437.94;;;15.56;78.07
70011;BME280;59543;37.950;-122.338;2023-03-14T01:44:53;101436.84;;;15.75;77.23
70011;BME280;59543;37.950;-122.338;2023-03-14T01:47:19;101443.78;;;15.77;77.38
70011;BME280;59543;37.950;-122.338;2023-03-14T01:49:46;101439.16;;;15.62;77.39
70011;BME280;59543;37.950;-122.338;2023-03-14T01:52:32;101438.59;;;15.58;77.85
70011;BME280;59543;37.950;-122.338;2023-03-14T01:55:09;101449.13;;;15.53;77.77
70011;BME280;59543;37.950;-122.338;2023-03-14T01:57:39;101459.97;;;15.61;77.96
70011;BME280;59543;37.950;-122.338;2023-03-14T02:00:09;101465.72;;;15.50;78.31
70011;BME280;59543;37.950;-122.338;2023-03-14T02:02:40;101475.75;;;15.23;79.68
70011;BME280;59543;37.950;-122.338;2023-03-14T02:05:07;101471.88;;;15.26;80.14
70011;BME280;59543;37.950;-122.338;2023-03-14T02:10:32;101470.97;;;15.17;80.47
70011;BME280;59543;37.950;-122.338;2023-03-14T02:13:01;101464.59;;;15.26;80.20
70011;BME280;59543;37.950;-122.338;2023-03-14T02:15:27;101460.28;;;15.16;80.70
70011;BME280;59543;37.950;-122.338;2023-03-14T02:17:53;101459.44;;;15.15;80.71
70011;BME280;59543;37.950;-122.338;2023-03-14T02:22:48;101440.75;;;15.04;81.50
70011;BME280;59543;37.950;-122.338;2023-03-14T02:27:58;101438.75;;;15.06;81.50
70011;BME280;59543;37.950;-122.338;2023-03-14T02:30:26;101441.13;;;15.09;81.57
70011;BME280;59543;37.950;-122.338;2023-03-14T02:32:53;101435.06;;;15.15;81.58
70011;BME280;59543;37.950;-122.338;2023-03-14T02:35:21;101434.34;;;15.05;81.67
70011;BME280;59543;37.950;-122.338;2023-03-14T02:40:37;101423.69;;;15.12;81.17
70011;BME280;59543;37.950;-122.338;2023-03-14T02:43:02;101430.56;;;14.98;82.32
70011;BME280;59543;37.950;-122.338;2023-03-14T02:45:32;101426.28;;;14.87;83.03
70011;BME280;59543;37.950;-122.338;2023-03-14T02:48:00;101430.94;;;15.03;82.32
70011;BME280;59543;37.950;-122.338;2023-03-14T02:50:29;101427.78;;;14.81;83.06
70011;BME280;59543;37.950;-122.338;2023-03-14T02:52:58;101433.88;;;14.83;83.02
70011;BME280;59543;37.950;-122.338;2023-03-14T02:55:24;101418.31;;;14.59;84.29
70011;BME280;59543;37.950;-122.338;2023-03-14T02:57:52;101418.53;;;14.66;84.18
70011;BME280;59543;37.950;-122.338;2023-03-14T03:00:18;101429.50;;;14.47;85.69
70011;BME280;59543;37.950;-122.338;2023-03-14T03:02:44;101429.50;;;14.47;85.44
70011;BME280;59543;37.950;-122.338;2023-03-14T03:05:10;101429.69;;;14.63;84.79
70011;BME280;59543;37.950;-122.338;2023-03-14T03:07:36;101421.34;;;14.56;84.86
70011;BME280;59543;37.950;-122.338;2023-03-14T03:10:02;101422.81;;;14.51;84.83
70011;BME280;59543;37.950;-122.338;2023-03-14T03:12:28;101427.22;;;14.34;85.90
70011;BME280;59543;37.950;-122.338;2023-03-14T03:14:54;101427.09;;;14.35;85.85
70011;BME280;59543;37.950;-122.338;2023-03-14T03:17:20;101432.81;;;14.32;86.56
70011;BME280;59543;37.950;-122.338;2023-03-14T03:19:45;101424.22;;;14.19;86.82
70011;BME280;59543;37.950;-122.338;2023-03-14T03:22:11;101426.94;;;14.19;86.86
70011;BME280;59543;37.950;-122.338;2023-03-14T03:24:37;101426.72;;;14.12;87.37
70011;BME280;59543;37.950;-122.338;2023-03-14T03:27:03;101434.50;;;14.15;87.04
70011;BME280;59543;37.950;-122.338;2023-03-14T03:29:29;101424.13;;;14.29;86.54
70011;BME280;59543;37.950;-122.338;2023-03-14T03:31:55;101423.69;;;14.15;86.99
70011;BME280;59543;37.950;-122.338;2023-03-14T03:34:21;101424.16;;;14.11;87.40
70011;BME280;59543;37.950;-122.338;2023-03-14T03:36:47;101414.19;;;14.11;87.63
70011;BME280;59543;37.950;-122.338;2023-03-14T03:39:13;101423.59;;;14.07;88.11
70011;BME280;59543;37.950;-122.338;2023-03-14T03:41:38;101424.00;;;14.12;87.76
70011;BME280;59543;37.950;-122.338;2023-03-14T03:44:04;101427.25;;;14.16;87.77
70011;BME280;59543;37.950;-122.338;2023-03-14T03:46:31;101430.56;;;14.10;88.16
70011;BME280;59543;37.950;-122.338;2023-03-14T03:48:58;101429.94;;;14.16;88.25
70011;BME280;59543;37.950;-122.338;2023-03-14T03:51:24;101428.03;;;14.26;87.91
70011;BME280;59543;37.950;-122.338;2023-03-14T03:53:50;101425.38;;;14.16;87.91
70011;BME280;59543;37.950;-122.338;2023-03-14T03:56:16;101425.88;;;14.12;88.16
70011;BME280;59543;37.950;-122.338;2023-03-14T03:58:42;101430.44;;;14.11;88.36
70011;BME280;59543;37.950;-122.338;2023-03-14T04:01:08;101431.91;;;14.06;88.82
70011;BME280;59543;37.950;-122.338;2023-03-14T04:03:34;101426.09;;;14.01;89.25
70011;BME280;59543;37.950;-122.338;2023-03-14T04:06:01;101417.03;;;14.10;88.56
70011;BME280;59543;37.950;-122.338;2023-03-14T04:08:28;101423.69;;;13.98;89.46
70011;BME280;59543;37.950;-122.338;2023-03-14T04:10:55;101418.81;;;14.01;89.58
70011;BME280;59543;37.950;-122.338;2023-03-14T04:13:21;101423.78;;;14.06;89.53
70011;BME280;59543;37.950;-122.338;2023-03-14T04:15:47;101420.16;;;13.97;90.36
70011;BME280;59543;37.950;-122.338;2023-03-14T04:18:13;101408.09;;;14.09;89.65
70011;BME280;59543;37.950;-122.338;2023-03-14T04:20:38;101411.81;;;14.08;89.71
70011;BME280;59543;37.950;-122.338;2023-03-14T04:23:04;101413.56;;;14.17;89.33
70011;BME280;59543;37.950;-122.338;2023-03-14T04:25:30;101413.88;;;14.14;89.67
70011;BME280;59543;37.950;-122.338;2023-03-14T04:27:56;101414.72;;;14.15;89.56
70011;BME280;59543;37.950;-122.338;2023-03-14T04:30:22;101406.00;;;14.03;90.78
70011;BME280;59543;37.950;-122.338;2023-03-14T04:32:47;101411.63;;;14.10;90.39
70011;BME280;59543;37.950;-122.338;2023-03-14T04:35:13;101413.91;;;13.97;90.98
70011;BME280;59543;37.950;-122.338;2023-03-14T04:37:39;101415.19;;;14.10;90.90
70011;BME280;59543;37.950;-122.338;2023-03-14T04:40:07;101420.28;;;13.95;91.04
70011;BME280;59543;37.950;-122.338;2023-03-14T04:42:33;101420.22;;;14.05;90.69
70011;BME280;59543;37.950;-122.338;2023-03-14T04:44:59;101419.97;;;13.99;91.44
70011;BME280;59543;37.950;-122.338;2023-03-14T04:47:25;101418.91;;;13.91;92.10
70011;BME280;59543;37.950;-122.338;2023-03-14T04:49:51;101414.03;;;13.95;92.54
70011;BME280;59543;37.950;-122.338;2023-03-14T04:52:17;101410.34;;;13.96;92.28
70011;BME280;59543;37.950;-122.338;2023-03-14T04:54:43;101398.19;;;13.82;93.10
70011;BME280;59543;37.950;-122.338;2023-03-14T04:57:09;101398.50;;;13.79;93.60
70011;BME280;59543;37.950;-122.338;2023-03-14T04:59:35;101390.78;;;13.84;93.51
70011;BME280;59543;37.950;-122.338;2023-03-14T05:02:01;101386.63;;;13.72;93.08
70011;BME280;59543;37.950;-122.338;2023-03-14T05:04:26;101381.75;;;13.76;93.10
70011;BME280;59543;37.950;-122.338;2023-03-14T05:06:52;101379.88;;;13.76;93.24
70011;BME280;59543;37.950;-122.338;2023-03-14T05:09:18;101386.13;;;13.77;93.20
70011;BME280;59543;37.950;-122.338;2023-03-14T05:11:44;101379.19;;;13.74;92.98
70011;BME280;59543;37.950;-122.338;2023-03-14T05:14:10;101374.41;;;13.68;93.21
70011;BME280;59543;37.950;-122.338;2023-03-14T05:16:36;101368.84;;;13.69;93.13
70011;BME280;59543;37.950;-122.338;2023-03-14T05:19:01;101373.72;;;13.66;93.69
70011;BME280;59543;37.950;-122.338;2023-03-14T05:21:27;101377.00;;;13.60;93.81
70011;BME280;59543;37.950;-122.338;2023-03-14T05:23:53;101366.19;;;13.60;94.16
70011;BME280;59543;37.950;-122.338;2023-03-14T05:26:19;101366.38;;;13.58;94.10
70011;BME280;59543;37.950;-122.338;2023-03-14T05:28:45;101365.03;;;13.62;94.13
70011;BME280;59543;37.950;-122.338;2023-03-14T05:31:11;101353.16;;;13.55;94.28
70011;BME280;59543;37.950;-122.338;2023-03-14T05:33:37;101355.47;;;13.50;94.51
70011;BME280;59543;37.950;-122.338;2023-03-14T05:36:03;101350.97;;;13.59;93.63
70011;BME280;59543;37.950;-122.338;2023-03-14T05:38:29;101354.00;;;13.56;93.92
70011;BME280;59543;37.950;-122.338;2023-03-14T05:40:54;101346.03;;;13.36;95.09
70011;BME280;59543;37.950;-122.338;2023-03-14T05:43:20;101354.44;;;13.33;95.33
70011;BME280;59543;37.950;-122.338;2023-03-14T05:45:46;101338.69;;;13.46;94.49
70011;BME280;59543;37.950;-122.338;2023-03-14T05:48:12;101340.09;;;13.50;94.47
70011;BME280;59543;37.950;-122.338;2023-03-14T05:50:38;101336.63;;;13.40;94.79
70011;BME280;59543;37.950;-122.338;2023-03-14T05:53:04;101327.34;;;13.43;94.87
70011;BME280;59543;37.950;-122.338;2023-03-14T05:55:30;101334.69;;;13.50;94.14
70011;BME280;59543;37.950;-122.338;2023-03-14T05:57:55;101333.53;;;13.53;93.26
70011;BME280;59543;37.950;-122.338;2023-03-14T06:00:21;101325.28;;;13.55;93.21
70011;BME280;59543;37.950;-122.338;2023-03-14T06:02:47;101318.47;;;13.50;93.03
70011;BME280;59543;37.950;-122.338;2023-03-14T06:05:13;101318.94;;;13.46;93.64
70011;BME280;59543;37.950;-122.338;2023-03-14T06:07:39;101307.03;;;13.57;93.13
70011;BME280;59543;37.950;-122.338;2023-03-14T06:10:05;101308.13;;;13.46;93.73
70011;BME280;59543;37.950;-122.338;2023-03-14T06:12:31;101302.50;;;13.57;93.02
70011;BME280;59543;37.950;-122.338;2023-03-14T06:14:57;101300.25;;;13.53;93.28
70011;BME280;59543;37.950;-122.338;2023-03-14T06:17:23;101291.38;;;13.60;92.78
70011;BME280;59543;37.950;-122.338;2023-03-14T06:19:49;101290.97;;;13.55;92.90
70011;BME280;59543;37.950;-122.338;2023-03-14T06:22:14;101285.41;;;13.57;93.02
70011;BME280;59543;37.950;-122.338;2023-03-14T06:24:41;101282.47;;;13.50;93.43
70011;BME280;59543;37.950;-122.338;2023-03-14T06:27:06;101279.88;;;13.58;92.93
70011;BME280;59543;37.950;-122.338;2023-03-14T06:29:32;101280.16;;;13.55;93.73
70011;BME280;59543;37.950;-122.338;2023-03-14T06:31:58;101275.91;;;13.53;94.32
70011;BME280;59543;37.950;-122.338;2023-03-14T06:34:24;101274.59;;;13.57;94.56
70011;BME280;59543;37.950;-122.338;2023-03-14T06:36:50;101277.56;;;13.63;94.14
70011;BME280;59543;37.950;-122.338;2023-03-14T06:39:16;101284.81;;;13.63;94.32
70011;BME280;59543;37.950;-122.338;2023-03-14T06:41:42;101277.06;;;13.68;94.11
70011;BME280;59543;37.950;-122.338;2023-03-14T06:44:08;101268.03;;;13.59;94.69
70011;BME280;59543;37.950;-122.338;2023-03-14T06:46:34;101265.91;;;13.63;95.08
70011;BME280;59543;37.950;-122.338;2023-03-14T06:48:59;101252.19;;;13.64;95.18
70011;BME280;59543;37.950;-122.338;2023-03-14T06:51:25;101262.88;;;13.66;95.22
70011;BME280;59543;37.950;-122.338;2023-03-14T06:53:51;101247.81;;;13.63;95.65
70011;BME280;59543;37.950;-122.338;2023-03-14T06:56:17;101231.28;;;13.66;95.64
70011;BME280;59543;37.950;-122.338;2023-03-14T06:58:43;101235.44;;;13.61;96.25
70011;BME280;59543;37.950;-122.338;2023-03-14T07:01:26;101242.94;;;13.67;95.96
70011;BME280;59543;37.950;-122.338;2023-03-14T07:03:52;101239.22;;;13.68;95.28
70011;BME280;59543;37.950;-122.338;2023-03-14T07:06:18;101233.06;;;13.84;93.62
70011;BME280;59543;37.950;-122.338;2023-03-14T07:08:44;101230.78;;;13.71;93.48
70011;BME280;59543;37.950;-122.338;2023-03-14T07:11:10;101218.69;;;13.75;92.90
70011;BME280;59543;37.950;-122.338;2023-03-14T07:13:39;101220.16;;;13.69;93.01
70011;BME280;59543;37.950;-122.338;2023-03-14T07:16:05;101223.63;;;13.62;93.54
70011;BME280;59543;37.950;-122.338;2023-03-14T07:18:32;101216.84;;;13.58;93.72
70011;BME280;59543;37.950;-122.338;2023-03-14T07:20:58;101220.53;;;13.57;93.91
70011;BME280;59543;37.950;-122.338;2023-03-14T07:23:24;101216.31;;;13.54;94.30
70011;BME280;59543;37.950;-122.338;2023-03-14T07:25:50;101205.75;;;13.43;95.21
70011;BME280;59543;37.950;-122.338;2023-03-14T07:28:16;101192.06;;;13.44;95.05
70011;BME280;59543;37.950;-122.338;2023-03-14T07:30:42;101192.22;;;13.43;95.06
70011;BME280;59543;37.950;-122.338;2023-03-14T07:33:08;101195.94;;;13.42;95.31
70011;BME280;59543;37.950;-122.338;2023-03-14T07:35:34;101183.97;;;13.44;95.25
70011;BME280;59543;37.950;-122.338;2023-03-14T07:38:00;101176.72;;;13.45;95.41
70011;BME280;59543;37.950;-122.338;2023-03-14T07:40:26;101179.44;;;13.45;95.79
70011;BME280;59543;37.950;-122.338;2023-03-14T07:42:51;101181.94;;;13.46;95.54
70011;BME280;59543;37.950;-122.338;2023-03-14T07:45:20;101186.00;;;13.42;95.61
70011;BME280;59543;37.950;-122.338;2023-03-14T07:47:46;101170.13;;;13.47;95.51
70011;BME280;59543;37.950;-122.338;2023-03-14T07:50:12;101172.63;;;13.41;95.64
70011;BME280;59543;37.950;-122.338;2023-03-14T07:52:38;101172.41;;;13.34;96.62
70011;BME280;59543;37.950;-122.338;2023-03-14T07:55:04;101168.06;;;13.41;96.35
70011;BME280;59543;37.950;-122.338;2023-03-14T07:57:30;101168.63;;;13.45;95.94
70011;BME280;59543;37.950;-122.338;2023-03-14T07:59:55;101156.78;;;13.46;96.23
70011;BME280;59543;37.950;-122.338;2023-03-14T08:02:21;101144.28;;;13.45;95.95
70011;BME280;59543;37.950;-122.338;2023-03-14T08:04:49;101133.47;;;13.45;96.12
70011;BME280;59543;37.950;-122.338;2023-03-14T08:07:15;101122.28;;;13.40;96.46
70011;BME280;59543;37.950;-122.338;2023-03-14T08:09:41;101125.38;;;13.45;96.23
70011;BME280;59543;37.950;-122.338;2023-03-14T08:12:07;101126.22;;;13.45;96.04
70011;BME280;59543;37.950;-122.338;2023-03-14T08:14:33;101114.81;;;13.34;97.33
70011;BME280;59543;37.950;-122.338;2023-03-14T08:16:59;101111.28;;;13.33;97.81
70011;BME280;59543;37.950;-122.338;2023-03-14T08:19:24;101117.59;;;13.42;97.15
70011;BME280;59543;37.950;-122.338;2023-03-14T08:21:50;101110.66;;;13.47;96.67
70011;BME280;59543;37.950;-122.338;2023-03-14T08:24:16;101108.09;;;13.38;97.53
70011;BME280;59543;37.950;-122.338;2023-03-14T08:26:42;101095.72;;;13.35;97.69
70011;BME280;59543;37.950;-122.338;2023-03-14T08:29:08;101099.84;;;13.39;97.84
70011;BME280;59543;37.950;-122.338;2023-03-14T08:31:37;101100.66;;;13.40;98.30
70011;BME280;59543;37.950;-122.338;2023-03-14T08:34:03;101091.97;;;13.28;98.90
70011;BME280;59543;37.950;-122.338;2023-03-14T08:36:29;101085.94;;;13.34;99.10
70011;BME280;59543;37.950;-122.338;2023-03-14T08:38:56;101083.38;;;13.33;99.49
70011;BME280;59543;37.950;-122.338;2023-03-14T08:41:23;101079.84;;;13.32;99.68
70011;BME280;59543;37.950;-122.338;2023-03-14T08:43:49;101076.66;;;13.37;99.27
70011;BME280;59543;37.950;-122.338;2023-03-14T08:46:14;101076.81;;;13.35;99.44
70011;BME280;59543;37.950;-122.338;2023-03-14T08:48:40;101066.88;;;13.36;99.43
70011;BME280;59543;37.950;-122.338;2023-03-14T08:51:07;101069.16;;;13.48;98.68
70011;BME280;59543;37.950;-122.338;2023-03-14T08:53:34;101068.19;;;13.58;97.96
70011;BME280;59543;37.950;-122.338;2023-03-14T08:56:00;101061.81;;;13.67;97.28
70011;BME280;59543;37.950;-122.338;2023-03-14T08:58:26;101063.16;;;13.63;96.91
70011;BME280;59543;37.950;-122.338;2023-03-14T09:00:51;101059.81;;;13.69;96.30
70011;BME280;59543;37.950;-122.338;2023-03-14T09:03:17;101054.72;;;13.66;96.44
70011;BME280;59543;37.950;-122.338;2023-03-14T09:05:43;101052.16;;;13.64;96.79
70011;BME280;59543;37.950;-122.338;2023-03-14T09:08:09;101053.31;;;13.62;96.79
70011;BME280;59543;37.950;-122.338;2023-03-14T09:10:35;101051.47;;;13.62;97.05
70011;BME280;59543;37.950;-122.338;2023-03-14T09:13:00;101044.56;;;13.68;96.63
70011;BME280;59543;37.950;-122.338;2023-03-14T09:15:26;101050.31;;;13.65;96.63
70011;BME280;59543;37.950;-122.338;2023-03-14T09:17:52;101034.91;;;13.65;96.36
70011;BME280;59543;37.950;-122.338;2023-03-14T09:20:18;101031.34;;;13.57;96.30
70011;BME280;59543;37.950;-122.338;2023-03-14T09:22:44;101022.38;;;13.48;97.50
70011;BME280;59543;37.950;-122.338;2023-03-14T09:25:10;101021.88;;;13.53;96.82
70011;BME280;59543;37.950;-122.338;2023-03-14T09:27:36;101018.13;;;13.54;96.61
70011;BME280;59543;37.950;-122.338;2023-03-14T09:30:02;101015.63;;;13.52;96.43
70011;BME280;59543;37.950;-122.338;2023-03-14T09:32:29;101007.66;;;13.50;96.63
70011;BME280;59543;37.950;-122.338;2023-03-14T09:34:56;101002.88;;;13.36;97.33
70011;BME280;59543;37.950;-122.338;2023-03-14T09:37:22;101001.47;;;13.32;97.74
70011;BME280;59543;37.950;-122.338;2023-03-14T09:39:48;100996.81;;;13.42;97.39
70011;BME280;59543;37.950;-122.338;2023-03-14T09:42:15;100996.97;;;13.41;97.45
70011;BME280;59543;37.950;-122.338;2023-03-14T09:44:48;100986.50;;;13.38;97.86
70011;BME280;59543;37.950;-122.338;2023-03-14T09:47:18;100988.66;;;13.34;98.00
70011;BME280;59543;37.950;-122.338;2023-03-14T09:49:45;100984.75;;;13.29;98.41
70011;BME280;59543;37.950;-122.338;2023-03-14T09:52:15;100976.84;;;13.35;98.38
70011;BME280;59543;37.950;-122.338;2023-03-14T09:54:45;100966.03;;;13.27;98.58
70011;BME280;59543;37.950;-122.338;2023-03-14T09:57:20;100952.94;;;13.22;98.94
70011;BME280;59543;37.950;-122.338;2023-03-14T09:59:47;100952.34;;;13.29;99.04
70011;BME280;59543;37.950;-122.338;2023-03-14T10:02:16;100945.03;;;13.21;99.05
70011;BME280;59543;37.950;-122.338;2023-03-14T10:04:43;100954.44;;;13.17;99.63
70011;BME280;59543;37.950;-122.338;2023-03-14T10:07:12;100949.03;;;13.17;99.24
70011;BME280;59543;37.950;-122.338;2023-03-14T10:09:40;100944.00;;;13.22;99.10
70011;BME280;59543;37.950;-122.338;2023-03-14T10:12:07;100931.66;;;13.19;99.36
70011;BME280;59543;37.950;-122.338;2023-03-14T10:14:35;100937.28;;;13.26;99.21
70011;BME280;59543;37.950;-122.338;2023-03-14T10:17:05;100925.56;;;13.17;99.30
70011;BME280;59543;37.950;-122.338;2023-03-14T10:19:31;100915.97;;;13.15;99.39
70011;BME280;59543;37.950;-122.338;2023-03-14T10:21:57;100911.06;;;13.18;99.08
70011;BME280;59543;37.950;-122.338;2023-03-14T10:24:27;100904.97;;;13.16;99.42
70011;BME280;59543;37.950;-122.338;2023-03-14T10:26:54;100905.81;;;13.17;99.45
70011;BME280;59543;37.950;-122.338;2023-03-14T10:29:21;100905.16;;;13.23;99.34
70011;BME280;59543;37.950;-122.338;2023-03-14T10:31:54;100896.56;;;13.19;99.39
70011;BME280;59543;37.950;-122.338;2023-03-14T10:34:24;100891.97;;;13.12;99.73
70011;BME280;59543;37.950;-122.338;2023-03-14T10:37:06;100885.28;;;13.24;99.19
70011;BME280;59543;37.950;-122.338;2023-03-14T10:39:45;100882.56;;;13.24;98.95
70011;BME280;59543;37.950;-122.338;2023-03-14T10:42:13;100881.88;;;13.22;98.85
70011;BME280;59543;37.950;-122.338;2023-03-14T10:44:40;100871.91;;;13.22;98.76
70011;BME280;59543;37.950;-122.338;2023-03-14T10:47:14;100860.72;;;13.09;98.76
70011;BME280;59543;37.950;-122.338;2023-03-14T10:49:41;100858.59;;;13.21;98.75
70011;BME280;59543;37.950;-122.338;2023-03-14T10:52:20;100850.59;;;13.11;98.69
70011;BME280;59543;37.950;-122.338;2023-03-14T10:54:57;100848.78;;;13.20;98.67
70011;BME280;59543;37.950;-122.338;2023-03-14T10:57:24;100842.19;;;13.22;97.77
70011;BME280;59543;37.950;-122.338;2023-03-14T10:59:50;100831.16;;;13.08;99.38
70011;BME280;59543;37.950;-122.338;2023-03-14T11:02:29;100825.63;;;13.17;99.06
70011;BME280;59543;37.950;-122.338;2023-03-14T11:05:01;100818.03;;;13.13;98.70
70011;BME280;59543;37.950;-122.338;2023-03-14T11:07:38;100809.94;;;13.13;99.21
70011;BME280;59543;37.950;-122.338;2023-03-14T11:10:21;100790.16;;;13.04;99.63
70011;BME280;59543;37.950;-122.338;2023-03-14T11:13:14;100788.97;;;13.07;99.30
70011;BME280;59543;37.950;-122.338;2023-03-14T11:23:40;100761.97;;;13.07;98.80
70011;BME280;59543;37.950;-122.338;2023-03-14T11:28:47;100743.44;;;13.12;98.69
70011;BME280;59543;37.950;-122.338;2023-03-14T11:31:23;100735.97;;;13.05;98.35
70011;BME280;59543;37.950;-122.338;2023-03-14T11:33:56;100721.66;;;13.13;97.64
70011;BME280;59543;37.950;-122.338;2023-03-14T11:36:27;100720.63;;;13.06;98.24
70011;BME280;59543;37.950;-122.338;2023-03-14T11:38:58;100719.09;;;13.03;98.48
70011;BME280;59543;37.950;-122.338;2023-03-14T11:41:44;100703.56;;;12.97;98.70
70011;BME280;59543;37.950;-122.338;2023-03-14T11:44:22;100697.81;;;12.92;99.91
70011;BME280;59543;37.950;-122.338;2023-03-14T11:46:51;100692.59;;;12.99;99.43
70011;BME280;59543;37.950;-122.338;2023-03-14T11:50:03;100684.31;;;13.00;99.51
70011;BME280;59543;37.950;-122.338;2023-03-14T11:52:10;100683.97;;;12.95;99.66
70011;BME280;59543;37.950;-122.338;2023-03-14T12:05:14;100669.81;;;13.10;99.58
70011;BME280;59543;37.950;-122.338;2023-03-14T12:10:26;100648.56;;;13.07;100.00
70011;BME280;59543;37.950;-122.338;2023-03-14T12:12:52;100641.97;;;12.85;100.00
70011;BME280;59543;37.950;-122.338;2023-03-14T12:15:19;100641.63;;;13.04;100.00
70011;BME280;59543;37.950;-122.338;2023-03-14T12:17:45;100635.06;;;13.07;100.00
70011;BME280;59543;37.950;-122.338;2023-03-14T12:22:47;100601.31;;;12.94;100.00
70011;BME280;59543;37.950;-122.338;2023-03-14T12:25:15;100587.28;;;12.99;100.00
70011;BME280;59543;37.950;-122.338;2023-03-14T12:28:02;100593.53;;;12.91;100.00
70011;BME280;59543;37.950;-122.338;2023-03-14T12:30:38;100593.34;;;12.93;100.00
70011;BME280;59543;37.950;-122.338;2023-03-14T12:38:15;100578.84;;;12.77;100.00
70011;BME280;59543;37.950;-122.338;2023-03-14T12:43:25;100564.19;;;12.88;100.00
70011;BME280;59543;37.950;-122.338;2023-03-14T12:48:47;100535.31;;;12.89;100.00
70011;BME280;59543;37.950;-122.338;2023-03-14T12:51:21;100537.69;;;12.92;99.84
70011;BME280;59543;37.950;-122.338;2023-03-14T12:56:24;100527.91;;;12.82;99.40
70011;BME280;59543;37.950;-122.338;2023-03-14T12:58:54;100519.94;;;12.81;99.23
70011;BME280;59543;37.950;-122.338;2023-03-14T13:01:24;100509.84;;;12.83;98.63
70011;BME280;59543;37.950;-122.338;2023-03-14T13:03:51;100518.78;;;12.92;97.77
70011;BME280;59543;37.950;-122.338;2023-03-14T13:12:02;100485.69;;;12.81;97.68
70011;BME280;59543;37.950;-122.338;2023-03-14T13:14:29;100473.56;;;12.77;98.23
70011;BME280;59543;37.950;-122.338;2023-03-14T13:16:59;100469.00;;;12.78;98.67
70011;BME280;59543;37.950;-122.338;2023-03-14T13:19:28;100465.81;;;12.74;98.07